sensor_id;sensor_type;location;lat;lon;timestamp;pressure;altitude;pressure_sealevel;temperature;humidity
33163;BME280;29282;45.656;11.302;2023-02-19T00:02:22;99216.28;;;18.86;42.53
33163;BME280;29282;45.656;11.302;2023-02-19T00:04:47;99204.50;;;18.86;42.58
33163;BME280;29282;45.656;11.302;2023-02-19T00:07:13;99212.75;;;18.86;42.62
33163;BME280;29282;45.656;11.302;2023-02-19T00:09:38;99202.09;;;18.84;42.43
33163;BME280;29282;45.656;11.302;2023-02-19T00:12:05;99204.31;;;18.82;42.65
33163;BME280;29282;45.656;11.302;2023-02-19T00:14:30;99202.72;;;18.81;42.45
33163;BME280;29282;45.656;11.302;2023-02-19T00:16:56;99201.88;;;18.81;42.63
33163;BME280;29282;45.656;11.302;2023-02-19T00:19:21;99205.13;;;18.83;42.60
33163;BME280;29282;45.656;11.302;2023-02-19T00:21:50;99198.50;;;18.84;42.70
33163;BME280;29282;45.656;11.302;2023-02-19T00:24:16;99191.09;;;18.84;42.71
33163;BME280;29282;45.656;11.302;2023-02-19T00:26:43;99186.41;;;18.85;42.77
33163;BME280;29282;45.656;11.302;2023-02-19T00:29:14;99183.69;;;18.85;42.75
33163;BME280;29282;45.656;11.302;2023-02-19T00:31:40;99183.69;;;18.85;42.84
33163;BME280;29282;45.656;11.302;2023-02-19T00:34:06;99180.75;;;18.81;42.99
33163;BME280;29282;45.656;11.302;2023-02-19T00:36:33;99189.28;;;18.80;42.90
33163;BME280;29282;45.656;11.302;2023-02-19T00:39:00;99176.19;;;18.76;42.83
33163;BME280;29282;45.656;11.302;2023-02-19T00:41:26;99183.63;;;18.76;43.03
33163;BME280;29282;45.656;11.302;2023-02-19T00:43:58;99183.94;;;18.74;43.07
33163;BME280;29282;45.656;11.302;2023-02-19T00:46:42;99181.19;;;18.74;42.81
33163;BME280;29282;45.656;11.302;2023-02-19T00:49:15;99185.06;;;18.73;42.88
33163;BME280;29282;45.656;11.302;2023-02-19T00:51:41;99179.88;;;18.72;42.85
33163;BME280;29282;45.656;11.302;2023-02-19T00:54:06;99182.09;;;18.70;43.01
33163;BME280;29282;45.656;11.302;2023-02-19T00:56:32;99180.16;;;18.70;42.93
33163;BME280;29282;45.656;11.302;2023-02-19T00:58:58;99175.81;;;18.69;43.02
33163;BME280;29282;45.656;11.302;2023-02-19T01:01:23;99182.44;;;18.68;42.96
33163;BME280;29282;45.656;11.302;2023-02-19T01:03:49;99182.44;;;18.68;43.00
33163;BME280;29282;45.656;11.302;2023-02-19T01:06:16;99180.78;;;18.67;43.06
33163;BME280;29282;45.656;11.302;2023-02-19T01:08:43;99179.97;;;18.67;42.86
33163;BME280;29282;45.656;11.302;2023-02-19T01:11:10;99175.28;;;18.67;42.85
33163;BME280;29282;45.656;11.302;2023-02-19T01:13:37;99174.00;;;18.65;42.91
33163;BME280;29282;45.656;11.302;2023-02-19T01:16:07;99174.00;;;18.65;42.83
33163;BME280;29282;45.656;11.302;2023-02-19T01:18:33;99172.38;;;18.64;42.87
33163;BME280;29282;45.656;11.302;2023-02-19T01:21:03;99168.00;;;18.63;43.07
33163;BME280;29282;45.656;11.302;2023-02-19T01:23:29;99166.06;;;18.63;42.77
33163;BME280;29282;45.656;11.302;2023-02-19T01:25:54;99156.22;;;18.62;42.90
33163;BME280;29282;45.656;11.302;2023-02-19T01:28:20;99162.84;;;18.61;42.76
33163;BME280;29282;45.656;11.302;2023-02-19T01:30:46;99156.53;;;18.61;42.93
33163;BME280;29282;45.656;11.302;2023-02-19T01:33:12;99146.38;;;18.61;42.92
33163;BME280;29282;45.656;11.302;2023-02-19T01:35:38;99148.00;;;18.62;42.84
33163;BME280;29282;45.656;11.302;2023-02-19T01:38:04;99141.19;;;18.60;42.93
33163;BME280;29282;45.656;11.302;2023-02-19T01:40:31;99140.91;;;18.61;42.98
33163;BME280;29282;45.656;11.302;2023-02-19T01:42:57;99137.03;;;18.62;42.66
33163;BME280;29282;45.656;11.302;2023-02-19T01:45:27;99135.41;;;18.61;42.87
33163;BME280;29282;45.656;11.302;2023-02-19T01:48:13;99137.03;;;18.62;42.89
33163;BME280;29282;45.656;11.302;2023-02-19T01:50:45;99135.06;;;18.63;42.72
33163;BME280;29282;45.656;11.302;2023-02-19T01:53:13;99133.13;;;18.63;42.82
33163;BME280;29282;45.656;11.302;2023-02-19T01:55:41;99137.53;;;18.64;42.84
33163;BME280;29282;45.656;11.302;2023-02-19T01:58:10;99132.03;;;18.64;42.65
33163;BME280;29282;45.656;11.302;2023-02-19T02:00:36;99127.66;;;18.63;42.90
33163;BME280;29282;45.656;11.302;2023-02-19T02:03:01;99124.91;;;18.63;42.62
33163;BME280;29282;45.656;11.302;2023-02-19T02:05:43;99124.91;;;18.63;42.72
33163;BME280;29282;45.656;11.302;2023-02-19T02:08:13;99113.63;;;18.65;42.55
33163;BME280;29282;45.656;11.302;2023-02-19T02:10:57;99114.72;;;18.64;42.71
33163;BME280;29282;45.656;11.302;2023-02-19T02:13:23;99112.50;;;18.66;42.60
33163;BME280;29282;45.656;11.302;2023-02-19T02:19:06;99103.47;;;18.65;42.58
33163;BME280;29282;45.656;11.302;2023-02-19T02:22:03;99105.41;;;18.65;42.54
33163;BME280;29282;45.656;11.302;2023-02-19T02:24:57;99097.47;;;18.63;42.62
33163;BME280;29282;45.656;11.302;2023-02-19T02:30:28;99102.16;;;18.63;42.53
33163;BME280;29282;45.656;11.302;2023-02-19T02:38:26;99087.13;;;18.60;42.55
33163;BME280;29282;45.656;11.302;2023-02-19T02:40:53;99080.53;;;18.61;42.43
33163;BME280;29282;45.656;11.302;2023-02-19T02:43:19;99080.53;;;18.61;42.54
33163;BME280;29282;45.656;11.302;2023-02-19T02:45:45;99079.69;;;18.61;42.60
33163;BME280;29282;45.656;11.302;2023-02-19T02:53:40;99070.66;;;18.60;42.59
33163;BME280;29282;45.656;11.302;2023-02-19T02:56:29;99071.78;;;18.59;42.55
33163;BME280;29282;45.656;11.302;2023-02-19T02:58:57;99078.88;;;18.60;42.64
33163;BME280;29282;45.656;11.302;2023-02-19T03:01:36;99071.44;;;18.61;42.46
33163;BME280;29282;45.656;11.302;2023-02-19T03:04:45;99067.09;;;18.60;42.44
33163;BME280;29282;45.656;11.302;2023-02-19T03:07:36;99067.09;;;18.60;42.54
33163;BME280;29282;45.656;11.302;2023-02-19T03:10:05;99069.03;;;18.59;42.58
33163;BME280;29282;45.656;11.302;2023-02-19T03:12:33;99059.19;;;18.58;42.40
33163;BME280;29282;45.656;11.302;2023-02-19T03:15:21;99062.75;;;18.59;42.62
33163;BME280;29282;45.656;11.302;2023-02-19T03:18:08;99067.44;;;18.58;42.54
33163;BME280;29282;45.656;11.302;2023-02-19T03:20:57;99055.66;;;18.58;42.57
33163;BME280;29282;45.656;11.302;2023-02-19T03:23:26;99053.53;;;18.54;42.60
33163;BME280;29282;45.656;11.302;2023-02-19T03:26:16;99054.34;;;18.55;42.55
33163;BME280;29282;45.656;11.302;2023-02-19T03:28:43;99044.47;;;18.54;42.44
33163;BME280;29282;45.656;11.302;2023-02-19T03:31:29;99043.66;;;18.53;42.53
33163;BME280;29282;45.656;11.302;2023-02-19T03:34:00;99052.69;;;18.54;42.44
33163;BME280;29282;45.656;11.302;2023-02-19T03:36:39;99043.66;;;18.53;42.58
33163;BME280;29282;45.656;11.302;2023-02-19T03:39:09;99053.03;;;18.52;42.46
33163;BME280;29282;45.656;11.302;2023-02-19T03:44:24;99056.09;;;18.51;42.54
33163;BME280;29282;45.656;11.302;2023-02-19T03:46:59;99052.22;;;18.52;42.63
33163;BME280;29282;45.656;11.302;2023-02-19T04:00:15;99042.06;;;18.52;42.51
33163;BME280;29282;45.656;11.302;2023-02-19T04:02:53;99043.34;;;18.55;42.34
33163;BME280;29282;45.656;11.302;2023-02-19T04:05:25;99042.84;;;18.53;42.40
33163;BME280;29282;45.656;11.302;2023-02-19T04:07:54;99031.88;;;18.53;42.45
33163;BME280;29282;45.656;11.302;2023-02-19T04:10:21;99039.81;;;18.54;42.36
33163;BME280;29282;45.656;11.302;2023-02-19T04:12:53;99043.19;;;18.51;42.36
33163;BME280;29282;45.656;11.302;2023-02-19T04:15:26;99044.78;;;18.52;42.53
33163;BME280;29282;45.656;11.302;2023-02-19T04:17:59;99044.78;;;18.52;42.36
33163;BME280;29282;45.656;11.302;2023-02-19T04:20:28;99047.53;;;18.52;42.31
33163;BME280;29282;45.656;11.302;2023-02-19T04:22:55;99046.72;;;18.52;42.49
33163;BME280;29282;45.656;11.302;2023-02-19T04:25:22;99050.28;;;18.52;42.38
33163;BME280;29282;45.656;11.302;2023-02-19T04:27:50;99047.53;;;18.52;42.38
33163;BME280;29282;45.656;11.302;2023-02-19T04:30:17;99050.28;;;18.52;42.45
33163;BME280;29282;45.656;11.302;2023-02-19T04:32:43;99037.38;;;18.53;42.30
33163;BME280;29282;45.656;11.302;2023-02-19T04:35:09;99044.00;;;18.52;42.29
33163;BME280;29282;45.656;11.302;2023-02-19T04:37:34;99037.38;;;18.53;42.43
33163;BME280;29282;45.656;11.302;2023-02-19T04:40:00;99035.75;;;18.52;42.32
33163;BME280;29282;45.656;11.302;2023-02-19T04:42:25;99037.38;;;18.53;42.40
33163;BME280;29282;45.656;11.302;2023-02-19T04:44:51;99025.91;;;18.51;42.40
33163;BME280;29282;45.656;11.302;2023-02-19T04:47:16;99025.09;;;18.50;42.50
33163;BME280;29282;45.656;11.302;2023-02-19T04:49:42;99025.41;;;18.49;42.46
33163;BME280;29282;45.656;11.302;2023-02-19T04:52:08;99025.91;;;18.51;42.34
33163;BME280;29282;45.656;11.302;2023-02-19T04:54:34;99024.28;;;18.50;42.36
33163;BME280;29282;45.656;11.302;2023-02-19T04:56:59;99023.19;;;18.51;42.32
33163;BME280;29282;45.656;11.302;2023-02-19T04:59:25;99018.78;;;18.50;42.30
33163;BME280;29282;45.656;11.302;2023-02-19T05:01:50;99022.34;;;18.50;42.10
33163;BME280;29282;45.656;11.302;2023-02-19T05:04:16;99027.03;;;18.50;42.41
33163;BME280;29282;45.656;11.302;2023-02-19T05:06:41;99015.25;;;18.49;42.44
33163;BME280;29282;45.656;11.302;2023-02-19T05:09:06;99016.03;;;18.50;42.21
33163;BME280;29282;45.656;11.302;2023-02-19T05:11:33;99025.09;;;18.50;42.38
33163;BME280;29282;45.656;11.302;2023-02-19T05:13:58;99014.09;;;18.50;42.31
33163;BME280;29282;45.656;11.302;2023-02-19T05:16:24;99008.63;;;18.50;42.27
33163;BME280;29282;45.656;11.302;2023-02-19T05:18:49;99011.38;;;18.50;42.26
33163;BME280;29282;45.656;11.302;2023-02-19T05:21:15;99013.31;;;18.50;42.37
33163;BME280;29282;45.656;11.302;2023-02-19T05:23:41;99005.06;;;18.50;42.34
33163;BME280;29282;45.656;11.302;2023-02-19T05:26:09;99008.63;;;18.50;42.35
33163;BME280;29282;45.656;11.302;2023-02-19T05:28:35;99014.44;;;18.49;42.23
33163;BME280;29282;45.656;11.302;2023-02-19T05:31:06;99009.44;;;18.51;42.12
33163;BME280;29282;45.656;11.302;2023-02-19T05:33:32;99000.72;;;18.49;42.37
33163;BME280;29282;45.656;11.302;2023-02-19T05:35:57;99006.72;;;18.51;42.31
33163;BME280;29282;45.656;11.302;2023-02-19T05:38:23;99002.03;;;18.51;42.30
33163;BME280;29282;45.656;11.302;2023-02-19T05:40:50;98991.84;;;18.52;42.30
33163;BME280;29282;45.656;11.302;2023-02-19T05:43:16;99002.31;;;18.50;42.32
33163;BME280;29282;45.656;11.302;2023-02-19T05:45:42;98998.94;;;18.53;42.13
33163;BME280;29282;45.656;11.302;2023-02-19T05:48:09;98991.03;;;18.51;42.21
33163;BME280;29282;45.656;11.302;2023-02-19T05:50:36;98992.66;;;18.52;42.10
33163;BME280;29282;45.656;11.302;2023-02-19T05:53:03;98981.69;;;18.52;42.10
33163;BME280;29282;45.656;11.302;2023-02-19T05:55:33;98980.06;;;18.51;42.18
33163;BME280;29282;45.656;11.302;2023-02-19T05:57:58;98973.78;;;18.51;42.13
33163;BME280;29282;45.656;11.302;2023-02-19T06:00:24;98972.16;;;18.50;42.22
33163;BME280;29282;45.656;11.302;2023-02-19T06:02:52;98984.88;;;18.46;42.36
33163;BME280;29282;45.656;11.302;2023-02-19T06:05:17;98985.53;;;18.43;42.20
33163;BME280;29282;45.656;11.302;2023-02-19T06:07:43;98981.97;;;18.42;42.44
33163;BME280;29282;45.656;11.302;2023-02-19T06:10:10;98977.00;;;18.44;42.17
33163;BME280;29282;45.656;11.302;2023-02-19T06:12:36;98977.97;;;18.48;42.21
33163;BME280;29282;45.656;11.302;2023-02-19T06:15:02;98978.25;;;18.47;42.00
33163;BME280;29282;45.656;11.302;2023-02-19T06:17:29;98979.91;;;18.48;41.90
33163;BME280;29282;45.656;11.302;2023-02-19T06:19:54;98976.31;;;18.47;42.02
33163;BME280;29282;45.656;11.302;2023-02-19T06:22:20;98974.41;;;18.48;41.98
33163;BME280;29282;45.656;11.302;2023-02-19T06:24:46;98981.50;;;18.49;42.09
33163;BME280;29282;45.656;11.302;2023-02-19T06:27:12;98977.97;;;18.48;42.17
33163;BME280;29282;45.656;11.302;2023-02-19T06:29:38;98972.47;;;18.48;41.97
33163;BME280;29282;45.656;11.302;2023-02-19T06:32:04;98971.66;;;18.48;41.94
33163;BME280;29282;45.656;11.302;2023-02-19T06:34:30;98983.13;;;18.50;42.04
33163;BME280;29282;45.656;11.302;2023-02-19T06:36:56;98989.41;;;18.50;42.04
33163;BME280;29282;45.656;11.302;2023-02-19T06:39:22;98986.66;;;18.50;41.94
33163;BME280;29282;45.656;11.302;2023-02-19T06:41:48;98985.88;;;18.50;42.08
33163;BME280;29282;45.656;11.302;2023-02-19T06:44:13;98982.00;;;18.51;41.86
33163;BME280;29282;45.656;11.302;2023-02-19T06:46:38;98984.75;;;18.51;42.07
33163;BME280;29282;45.656;11.302;2023-02-19T06:49:04;98987.50;;;18.51;42.05
33163;BME280;29282;45.656;11.302;2023-02-19T06:51:30;99003.13;;;18.50;42.00
33163;BME280;29282;45.656;11.302;2023-02-19T06:53:57;99003.47;;;18.49;42.05
33163;BME280;29282;45.656;11.302;2023-02-19T06:56:34;98990.53;;;18.49;41.98
33163;BME280;29282;45.656;11.302;2023-02-19T06:59:02;98992.47;;;18.49;41.94
33163;BME280;29282;45.656;11.302;2023-02-19T07:01:29;98999.59;;;18.50;41.97
33163;BME280;29282;45.656;11.302;2023-02-19T07:03:55;98987.00;;;18.49;42.03
33163;BME280;29282;45.656;11.302;2023-02-19T07:06:24;98988.94;;;18.48;41.88
33163;BME280;29282;45.656;11.302;2023-02-19T07:08:50;98996.84;;;18.50;41.97
33163;BME280;29282;45.656;11.302;2023-02-19T07:11:16;98988.94;;;18.48;42.11
33163;BME280;29282;45.656;11.302;2023-02-19T07:13:43;98993.63;;;18.48;42.09
33163;BME280;29282;45.656;11.302;2023-02-19T07:16:09;98987.28;;;18.47;42.02
33163;BME280;29282;45.656;11.302;2023-02-19T07:18:35;98992.78;;;18.47;42.03
33163;BME280;29282;45.656;11.302;2023-02-19T07:21:12;98996.38;;;18.48;42.08
33163;BME280;29282;45.656;11.302;2023-02-19T07:23:38;99000.22;;;18.47;42.14
33163;BME280;29282;45.656;11.302;2023-02-19T07:26:08;98991.50;;;18.45;42.20
33163;BME280;29282;45.656;11.302;2023-02-19T07:28:33;98997.47;;;18.47;42.16
33163;BME280;29282;45.656;11.302;2023-02-19T07:31:00;99001.84;;;18.48;42.22
33163;BME280;29282;45.656;11.302;2023-02-19T07:33:26;98997.47;;;18.47;42.19
33163;BME280;29282;45.656;11.302;2023-02-19T07:35:51;98996.84;;;18.50;42.08
33163;BME280;29282;45.656;11.302;2023-02-19T07:38:18;98982.00;;;18.51;42.11
33163;BME280;29282;45.656;11.302;2023-02-19T07:41:00;98991.22;;;18.55;42.17
33163;BME280;29282;45.656;11.302;2023-02-19T07:43:32;98994.78;;;18.55;42.10
33163;BME280;29282;45.656;11.302;2023-02-19T07:45:58;98980.75;;;18.66;41.78
33163;BME280;29282;45.656;11.302;2023-02-19T07:48:26;98983.72;;;18.78;41.80
33163;BME280;29282;45.656;11.302;2023-02-19T07:50:53;98970.31;;;18.94;41.55
33163;BME280;29282;45.656;11.302;2023-02-19T07:53:20;98965.66;;;19.03;41.39
33163;BME280;29282;45.656;11.302;2023-02-19T07:55:46;98985.19;;;19.10;41.33
33163;BME280;29282;45.656;11.302;2023-02-19T07:58:11;98989.41;;;19.16;41.41
33163;BME280;29282;45.656;11.302;2023-02-19T08:00:37;98987.81;;;19.15;41.44
33163;BME280;29282;45.656;11.302;2023-02-19T08:03:02;98996.53;;;19.17;41.70
33163;BME280;29282;45.656;11.302;2023-02-19T08:05:33;98989.72;;;19.23;41.57
33163;BME280;29282;45.656;11.302;2023-02-19T08:08:01;98988.63;;;19.24;41.57
33163;BME280;29282;45.656;11.302;2023-02-19T08:10:27;98976.50;;;19.25;41.62
33163;BME280;29282;45.656;11.302;2023-02-19T08:13:13;98987.47;;;19.25;41.71
33163;BME280;29282;45.656;11.302;2023-02-19T08:18:30;98981.00;;;19.30;41.70
33163;BME280;29282;45.656;11.302;2023-02-19T08:20:58;98981.00;;;19.30;41.81
33163;BME280;29282;45.656;11.302;2023-02-19T08:23:25;98981.69;;;19.27;41.77
33163;BME280;29282;45.656;11.302;2023-02-19T08:25:51;98987.97;;;19.28;41.81
33163;BME280;29282;45.656;11.302;2023-02-19T08:28:18;98988.78;;;19.28;41.70
33163;BME280;29282;45.656;11.302;2023-02-19T08:30:46;98988.13;;;19.31;41.75
33163;BME280;29282;45.656;11.302;2023-02-19T08:33:13;98999.75;;;19.37;41.62
33163;BME280;29282;45.656;11.302;2023-02-19T08:35:40;98993.16;;;19.38;41.57
33163;BME280;29282;45.656;11.302;2023-02-19T08:38:08;98988.13;;;19.40;41.66
33163;BME280;29282;45.656;11.302;2023-02-19T08:40:34;98997.16;;;19.49;41.51
33163;BME280;29282;45.656;11.302;2023-02-19T08:43:09;99001.38;;;19.55;41.33
33163;BME280;29282;45.656;11.302;2023-02-19T08:45:36;99005.72;;;19.56;41.14
33163;BME280;29282;45.656;11.302;2023-02-19T08:48:02;99007.66;;;19.56;41.21
33163;BME280;29282;45.656;11.302;2023-02-19T08:50:28;98994.25;;;19.63;41.05
33163;BME280;29282;45.656;11.302;2023-02-19T08:52:54;98987.31;;;19.65;41.15
33163;BME280;29282;45.656;11.302;2023-02-19T08:55:20;98994.59;;;19.70;41.01
33163;BME280;29282;45.656;11.302;2023-02-19T08:57:45;98992.66;;;19.70;41.06
33163;BME280;29282;45.656;11.302;2023-02-19T09:00:16;98995.41;;;19.70;40.84
33163;BME280;29282;45.656;11.302;2023-02-19T09:02:42;98998.97;;;19.71;41.12
33163;BME280;29282;45.656;11.302;2023-02-19T09:05:07;98994.44;;;19.75;41.15
33163;BME280;29282;45.656;11.302;2023-02-19T09:07:33;98991.69;;;19.75;41.17
33163;BME280;29282;45.656;11.302;2023-02-19T09:09:59;99001.53;;;19.76;40.99
33163;BME280;29282;45.656;11.302;2023-02-19T09:12:25;99003.97;;;19.78;40.95
33163;BME280;29282;45.656;11.302;2023-02-19T09:14:50;99005.56;;;19.79;41.00
33163;BME280;29282;45.656;11.302;2023-02-19T09:17:16;99004.28;;;19.76;41.25
33163;BME280;29282;45.656;11.302;2023-02-19T09:19:44;99000.41;;;19.77;41.11
33163;BME280;29282;45.656;11.302;2023-02-19T09:22:10;98996.84;;;19.77;41.16
33163;BME280;29282;45.656;11.302;2023-02-19T09:24:35;98998.47;;;19.78;41.01
33163;BME280;29282;45.656;11.302;2023-02-19T09:27:01;98998.47;;;19.78;41.06
33163;BME280;29282;45.656;11.302;2023-02-19T09:29:27;99001.53;;;19.85;40.96
33163;BME280;29282;45.656;11.302;2023-02-19T09:31:56;98994.09;;;19.85;40.91
33163;BME280;29282;45.656;11.302;2023-02-19T09:34:23;98991.81;;;19.87;41.00
33163;BME280;29282;45.656;11.302;2023-02-19T09:36:49;98994.88;;;19.86;40.93
33163;BME280;29282;45.656;11.302;2023-02-19T09:39:15;98991.66;;;19.84;41.22
33163;BME280;29282;45.656;11.302;2023-02-19T09:41:49;98989.22;;;19.82;41.02
33163;BME280;29282;45.656;11.302;2023-02-19T09:44:23;98990.03;;;19.83;40.96
33163;BME280;29282;45.656;11.302;2023-02-19T09:46:51;98995.69;;;19.86;41.05
33163;BME280;29282;45.656;11.302;2023-02-19T09:49:21;98994.56;;;19.87;41.30
33163;BME280;29282;45.656;11.302;2023-02-19T09:51:57;98991.97;;;19.91;41.21
33163;BME280;29282;45.656;11.302;2023-02-19T09:54:29;99005.22;;;19.89;41.04
33163;BME280;29282;45.656;11.302;2023-02-19T09:56:58;98998.59;;;19.90;41.39
33163;BME280;29282;45.656;11.302;2023-02-19T09:59:28;99006.84;;;19.90;41.15
33163;BME280;29282;45.656;11.302;2023-02-19T10:02:09;98998.13;;;19.88;41.33
33163;BME280;29282;45.656;11.302;2023-02-19T10:04:40;99007.19;;;19.88;41.43
33163;BME280;29282;45.656;11.302;2023-02-19T10:07:11;98991.97;;;19.91;41.59
33163;BME280;29282;45.656;11.302;2023-02-19T10:09:39;98992.28;;;19.89;41.58
33163;BME280;29282;45.656;11.302;2023-02-19T10:12:17;98997.47;;;19.91;41.67
33163;BME280;29282;45.656;11.302;2023-02-19T10:14:49;98994.38;;;19.92;41.61
33163;BME280;29282;45.656;11.302;2023-02-19T10:17:29;98995.19;;;19.93;41.80
33163;BME280;29282;45.656;11.302;2023-02-19T10:19:56;98992.13;;;19.94;41.83
33163;BME280;29282;45.656;11.302;2023-02-19T10:22:23;99001.84;;;19.92;42.11
33163;BME280;29282;45.656;11.302;2023-02-19T10:24:52;99001.53;;;19.93;42.04
33163;BME280;29282;45.656;11.302;2023-02-19T10:27:18;98990.53;;;19.93;42.22
33163;BME280;29282;45.656;11.302;2023-02-19T10:29:46;98990.03;;;19.91;42.29
33163;BME280;29282;45.656;11.302;2023-02-19T10:32:24;98994.38;;;19.92;42.29
33163;BME280;29282;45.656;11.302;2023-02-19T10:35:08;98991.97;;;19.91;42.38
33163;BME280;29282;45.656;11.302;2023-02-19T10:37:35;98986.47;;;19.91;42.33
33163;BME280;29282;45.656;11.302;2023-02-19T10:40:14;98986.47;;;19.91;42.49
33163;BME280;29282;45.656;11.302;2023-02-19T10:42:44;98988.72;;;19.89;42.75
33163;BME280;29282;45.656;11.302;2023-02-19T10:45:17;98981.28;;;19.89;43.03
33163;BME280;29282;45.656;11.302;2023-02-19T10:47:45;98979.69;;;19.88;42.85
33163;BME280;29282;45.656;11.302;2023-02-19T10:50:24;98983.22;;;19.89;42.84
33163;BME280;29282;45.656;11.302;2023-02-19T10:52:52;98976.28;;;19.91;42.86
33163;BME280;29282;45.656;11.302;2023-02-19T10:55:28;98983.38;;;19.92;42.89
33163;BME280;29282;45.656;11.302;2023-02-19T10:57:54;98986.94;;;19.93;43.05
33163;BME280;29282;45.656;11.302;2023-02-19T11:00:25;98988.06;;;19.92;43.10
33163;BME280;29282;45.656;11.302;2023-02-19T11:03:21;98983.06;;;19.94;43.09
33163;BME280;29282;45.656;11.302;2023-02-19T11:06:05;98982.72;;;19.95;43.30
33163;BME280;29282;45.656;11.302;2023-02-19T11:11:08;98964.28;;;19.96;43.48
33163;BME280;29282;45.656;11.302;2023-02-19T11:13:34;98956.03;;;19.96;43.34
33163;BME280;29282;45.656;11.302;2023-02-19T11:16:02;98955.22;;;19.95;43.35
33163;BME280;29282;45.656;11.302;2023-02-19T11:18:32;98949.06;;;19.99;43.28
33163;BME280;29282;45.656;11.302;2023-02-19T11:21:05;98945.03;;;19.96;43.38
33163;BME280;29282;45.656;11.302;2023-02-19T11:23:34;98940.31;;;19.97;43.43
33163;BME280;29282;45.656;11.302;2023-02-19T11:26:06;98936.78;;;19.96;43.27
33163;BME280;29282;45.656;11.302;2023-02-19T11:28:42;98928.66;;;20.00;43.43
33163;BME280;29282;45.656;11.302;2023-02-19T11:36:37;98916.06;;;19.99;43.56
33163;BME280;29282;45.656;11.302;2023-02-19T11:55:41;98900.50;;;20.03;43.71
33163;BME280;29282;45.656;11.302;2023-02-19T12:03:53;98895.00;;;20.03;43.69
33163;BME280;29282;45.656;11.302;2023-02-19T12:06:50;98893.06;;;20.03;43.59
33163;BME280;29282;45.656;11.302;2023-02-19T12:25:40;98879.78;;;20.05;43.77
33163;BME280;29282;45.656;11.302;2023-02-19T12:28:39;98886.75;;;20.03;43.67
33163;BME280;29282;45.656;11.302;2023-02-19T12:38:46;98869.75;;;20.09;43.61
33163;BME280;29282;45.656;11.302;2023-02-19T12:41:34;98866.31;;;20.12;43.75
33163;BME280;29282;45.656;11.302;2023-02-19T12:44:18;98862.09;;;20.15;43.64
33163;BME280;29282;45.656;11.302;2023-02-19T12:46:50;98861.78;;;20.16;43.58
33163;BME280;29282;45.656;11.302;2023-02-19T12:49:25;98854.34;;;20.17;45.53
33163;BME280;29282;45.656;11.302;2023-02-19T12:52:20;98838.91;;;20.25;45.51
33163;BME280;29282;45.656;11.302;2023-02-19T12:54:50;98841.94;;;20.32;45.70
33163;BME280;29282;45.656;11.302;2023-02-19T12:57:22;98846.72;;;20.44;45.26
33163;BME280;29282;45.656;11.302;2023-02-19T13:02:40;98848.72;;;20.64;44.75
33163;BME280;29282;45.656;11.302;2023-02-19T13:05:42;98838.91;;;20.75;44.43
33163;BME280;29282;45.656;11.302;2023-02-19T13:08:23;98835.94;;;20.80;44.51
33163;BME280;29282;45.656;11.302;2023-02-19T13:10:58;98840.56;;;20.88;44.47
33163;BME280;29282;45.656;11.302;2023-02-19T13:16:19;98848.63;;;20.94;44.40
33163;BME280;29282;45.656;11.302;2023-02-19T13:18:49;98847.03;;;20.93;44.61
33163;BME280;29282;45.656;11.302;2023-02-19T13:21:18;98842.22;;;21.02;44.63
33163;BME280;29282;45.656;11.302;2023-02-19T13:24:07;98843.63;;;21.08;44.48
33163;BME280;29282;45.656;11.302;2023-02-19T13:38:02;98843.97;;;21.06;44.99
33163;BME280;29282;45.656;11.302;2023-02-19T13:40:32;98846.25;;;21.04;45.19
33163;BME280;29282;45.656;11.302;2023-02-19T13:43:01;98847.84;;;21.05;44.83
33163;BME280;29282;45.656;11.302;2023-02-19T13:45:35;98845.22;;;21.09;44.96
33163;BME280;29282;45.656;11.302;2023-02-19T13:48:12;98841.56;;;21.05;45.19
33163;BME280;29282;45.656;11.302;2023-02-19T13:50:38;98836.16;;;21.08;45.08
33163;BME280;29282;45.656;11.302;2023-02-19T14:14:51;98817.16;;;21.28;44.98
33163;BME280;29282;45.656;11.302;2023-02-19T14:28:00;98806.81;;;21.25;45.14
33163;BME280;29282;45.656;11.302;2023-02-19T14:30:27;98800.03;;;21.22;45.00
33163;BME280;29282;45.656;11.302;2023-02-19T14:32:54;98805.91;;;21.21;45.01
33163;BME280;29282;45.656;11.302;2023-02-19T14:35:24;98799.22;;;21.22;45.15
33163;BME280;29282;45.656;11.302;2023-02-19T14:37:53;98802.47;;;21.24;45.15
33163;BME280;29282;45.656;11.302;2023-02-19T14:40:23;98800.19;;;21.26;44.98
33163;BME280;29282;45.656;11.302;2023-02-19T14:42:52;98808.56;;;21.29;44.75
33163;BME280;29282;45.656;11.302;2023-02-19T14:45:19;98806.50;;;21.26;44.89
33163;BME280;29282;45.656;11.302;2023-02-19T14:47:47;98813.97;;;21.26;44.81
33163;BME280;29282;45.656;11.302;2023-02-19T14:50:28;98806.50;;;21.26;44.67
33163;BME280;29282;45.656;11.302;2023-02-19T14:52:58;98807.75;;;21.29;44.53
33163;BME280;29282;45.656;11.302;2023-02-19T14:55:29;98825.22;;;21.33;44.67
33163;BME280;29282;45.656;11.302;2023-02-19T14:57:58;98826.72;;;21.30;44.68
33163;BME280;29282;45.656;11.302;2023-02-19T15:00:29;98819.94;;;21.28;44.58
33163;BME280;29282;45.656;11.302;2023-02-19T15:02:56;98826.03;;;21.33;44.54
33163;BME280;29282;45.656;11.302;2023-02-19T15:05:31;98820.84;;;21.32;44.74
33163;BME280;29282;45.656;11.302;2023-02-19T15:08:01;98824.91;;;21.34;44.30
33163;BME280;29282;45.656;11.302;2023-02-19T15:10:29;98826.34;;;21.32;44.32
33163;BME280;29282;45.656;11.302;2023-02-19T15:13:01;98829.13;;;21.32;44.35
33163;BME280;29282;45.656;11.302;2023-02-19T15:15:33;98842.09;;;21.31;44.37
33163;BME280;29282;45.656;11.302;2023-02-19T15:18:01;98838.22;;;21.32;44.44
33163;BME280;29282;45.656;11.302;2023-02-19T15:20:32;98831.88;;;21.32;44.18
33163;BME280;29282;45.656;11.302;2023-02-19T15:22:59;98843.38;;;21.34;44.27